Check out our new PWSWeather beta!
PWSweather.com
Personal Weather Stations
Station Observations
GRD01
Warsaw, LesznoPL 05-084

WarsawLesznoPL 05-084

Lat: 52.257404, Lon: 20.564847

Elevation: 298

Station Type: WH3080

http://pogoda.kampinos.waw.pl

Latest ConditionsUpdated 5:59:42 PM GMT+01:01 Monday, Feb 24, 2020
Currently Today's Max Today's Min Today's Average
Temperature 41.7°F5.4°C 43.5°F6.4°C 36.9°F2.7°C 40.5°F4.7°C
Dew Point 33.7°F0.9°C 38.2°F3.4°C 32.2°F0.1°C 35.0°F1.7°C
Winds 1.6 mph SSW2.6 kmh SSW 15.2 mph -24.5 kmh - - 8.2 mph 13.2 kmh
Wind Gusts 4.5 mph7.2 kmh 24.4 mph39.3 kmh - -
Humidity 73% 85% 72% 81%
Pressure 29.77 in1008.1 mb 29.79 in1008.8 mb 29.38 in994.9 mb -
Precipitation - 0.19 in4.8 mm - -
Hour Temp Dew Point Humidity Winds Wind Gusts Pressure Precip Precip Rate Daily Precip Total
05:59 PM 41.7°F5.4°C 33.7°F0.9°C 73% 1.6 mph SSW2.6 kmh SSW 4.5 mph7.2 kmh 29.77 in1008.1 mb 0.00 in0.0 mm 0.00 in0.0 mm 0.19 in4.8 mm
05:44 PM 42.1°F5.6°C 34.0°F1.1°C 73% 1.6 mph S2.6 kmh S 4.5 mph7.2 kmh 29.77 in1008.1 mb 0.00 in0.0 mm 0.00 in0.0 mm 0.19 in4.8 mm
05:29 PM 42.6°F5.9°C 34.2°F1.2°C 72% 3.1 mph SSW5.0 kmh SSW 5.4 mph8.7 kmh 29.77 in1008.1 mb 0.00 in0.0 mm 0.00 in0.0 mm 0.19 in4.8 mm
05:14 PM 43.0°F6.1°C 34.6°F1.4°C 72% 4.5 mph SW7.2 kmh SW 10.7 mph17.2 kmh 29.78 in1008.5 mb 0.00 in0.0 mm 0.00 in0.0 mm 0.19 in4.8 mm
04:59 PM 43.2°F6.2°C 34.7°F1.5°C 72% 4.5 mph SW7.2 kmh SW 10.7 mph17.2 kmh 29.78 in1008.5 mb 0.00 in0.0 mm 0.00 in0.0 mm 0.19 in4.8 mm
04:44 PM 43.2°F6.2°C 35.1°F1.7°C 73% 3.1 mph SW5.0 kmh SW 13.0 mph20.9 kmh 29.78 in1008.5 mb 0.00 in0.0 mm 0.00 in0.0 mm 0.19 in4.8 mm
04:29 PM 43.2°F6.2°C 35.4°F1.9°C 74% 4.5 mph SW7.2 kmh SW 9.8 mph15.8 kmh 29.78 in1008.5 mb 0.00 in0.0 mm 0.00 in0.0 mm 0.19 in4.8 mm
04:14 PM 43.3°F6.3°C 35.9°F2.2°C 75% 5.4 mph W8.7 kmh W 12.1 mph19.5 kmh 29.78 in1008.5 mb 0.00 in0.0 mm 0.00 in0.0 mm 0.19 in4.8 mm
03:59 PM 43.3°F6.3°C 36.3°F2.4°C 76% 9.2 mph WSW14.8 kmh WSW 11.4 mph18.3 kmh 29.78 in1008.5 mb 0.00 in0.0 mm 0.00 in0.0 mm 0.19 in4.8 mm
03:44 PM 43.5°F6.4°C 37.1°F2.8°C 78% 6.9 mph SW11.1 kmh SW 11.4 mph18.3 kmh 29.78 in1008.5 mb 0.00 in0.0 mm 0.00 in0.0 mm 0.19 in4.8 mm
03:29 PM 43.5°F6.4°C 37.1°F2.8°C 78% 7.6 mph WSW12.2 kmh WSW 11.4 mph18.3 kmh 29.78 in1008.5 mb 0.00 in0.0 mm 0.00 in0.0 mm 0.19 in4.8 mm
03:14 PM 43.3°F6.3°C 37.3°F2.9°C 79% 6.9 mph W11.1 kmh W 14.5 mph23.3 kmh 29.78 in1008.5 mb 0.00 in0.0 mm 0.00 in0.0 mm 0.19 in4.8 mm
03:13 PM 43.3°F6.3°C 38.2°F3.4°C 82% 5.4 mph SW8.7 kmh SW 6.9 mph11.1 kmh 29.78 in1008.5 mb 0.00 in0.0 mm 0.00 in0.0 mm 0.19 in4.8 mm
03:00 PM 43.3°F6.3°C 37.6°F3.1°C 80% 9.2 mph W14.8 kmh W 12.1 mph19.5 kmh 29.78 in1008.5 mb 0.00 in0.0 mm 0.00 in0.0 mm 0.19 in4.8 mm
01:44 PM 42.8°F6.0°C 37.7°F3.2°C 82% 8.3 mph NW13.4 kmh NW 15.9 mph25.6 kmh 29.78 in1008.5 mb 0.00 in0.0 mm 0.00 in0.0 mm 0.19 in4.8 mm
01:29 PM 42.6°F5.9°C 37.8°F3.2°C 83% 9.2 mph W14.8 kmh W 13.0 mph20.9 kmh 29.78 in1008.5 mb 0.00 in0.0 mm 0.00 in0.0 mm 0.19 in4.8 mm
01:14 PM 42.1°F5.6°C 37.0°F2.8°C 82% 2.2 mph W3.5 kmh W 11.4 mph18.3 kmh 29.78 in1008.5 mb 0.00 in0.0 mm 0.00 in0.0 mm 0.19 in4.8 mm
12:59 PM 42.3°F5.7°C 37.2°F2.9°C 82% 6.9 mph WNW11.1 kmh WNW 16.8 mph27.0 kmh 29.78 in1008.5 mb 0.01 in0.3 mm 0.00 in0.0 mm 0.19 in4.8 mm
12:44 PM 42.8°F6.0°C 37.7°F3.2°C 82% 11.4 mph NW18.3 kmh NW 13.6 mph21.9 kmh 29.78 in1008.5 mb 0.02 in0.5 mm 0.00 in0.0 mm 0.19 in4.8 mm
12:29 PM 42.3°F5.7°C 37.2°F2.9°C 82% 8.3 mph WNW13.4 kmh WNW 14.5 mph23.3 kmh 29.79 in1008.8 mb 0.02 in0.5 mm 0.00 in0.0 mm 0.18 in4.6 mm
12:14 PM 42.1°F5.6°C 36.7°F2.6°C 81% 4.5 mph WNW7.2 kmh WNW 14.5 mph23.3 kmh 29.78 in1008.5 mb 0.02 in0.5 mm 0.00 in0.0 mm 0.18 in4.6 mm
11:59 AM 41.9°F5.5°C 36.5°F2.5°C 81% 4.5 mph WNW7.2 kmh WNW 10.7 mph17.2 kmh 29.78 in1008.5 mb 0.02 in0.5 mm 0.04 in1.0 mm 0.18 in4.6 mm
11:44 AM 41.9°F5.5°C 36.5°F2.5°C 81% 4.5 mph WNW7.2 kmh WNW 15.2 mph24.5 kmh 29.79 in1008.8 mb 0.01 in0.3 mm 0.04 in1.0 mm 0.17 in4.3 mm
11:29 AM 42.1°F5.6°C 36.4°F2.4°C 80% 8.3 mph W13.4 kmh W 13.6 mph21.9 kmh 29.78 in1008.5 mb 0.00 in0.0 mm 0.00 in0.0 mm 0.15 in3.8 mm
11:14 AM 41.9°F5.5°C 36.2°F2.3°C 80% 8.3 mph NW13.4 kmh NW 13.0 mph20.9 kmh 29.78 in1008.5 mb 0.00 in0.0 mm 0.00 in0.0 mm 0.15 in3.8 mm
10:59 AM 42.3°F5.7°C 36.8°F2.7°C 81% 7.6 mph WNW12.2 kmh WNW 15.9 mph25.6 kmh 29.78 in1008.5 mb 0.00 in0.0 mm 0.00 in0.0 mm 0.15 in3.8 mm
10:44 AM 41.9°F5.5°C 36.5°F2.5°C 81% 9.2 mph NW14.8 kmh NW 15.9 mph25.6 kmh 29.77 in1008.1 mb 0.00 in0.0 mm 0.00 in0.0 mm 0.15 in3.8 mm
10:29 AM 41.5°F5.3°C 36.1°F2.3°C 81% 10.7 mph NW17.2 kmh NW 18.3 mph29.5 kmh 29.77 in1008.1 mb 0.01 in0.3 mm 0.00 in0.0 mm 0.15 in3.8 mm
10:14 AM 41.2°F5.1°C 35.8°F2.1°C 81% 9.2 mph W14.8 kmh W 16.8 mph27.0 kmh 29.77 in1008.1 mb 0.01 in0.3 mm 0.00 in0.0 mm 0.15 in3.8 mm
09:59 AM 41.0°F5.0°C 35.6°F2.0°C 81% 5.4 mph WNW8.7 kmh WNW 13.0 mph20.9 kmh 29.76 in1007.8 mb 0.01 in0.3 mm 0.00 in0.0 mm 0.15 in3.8 mm
09:44 AM 40.6°F4.8°C 35.0°F1.7°C 80% 7.6 mph NW12.2 kmh NW 13.6 mph21.9 kmh 29.75 in1007.5 mb 0.01 in0.3 mm 0.04 in1.0 mm 0.15 in3.8 mm
09:29 AM 40.6°F4.8°C 35.0°F1.7°C 80% 3.8 mph NW6.1 kmh NW 12.1 mph19.5 kmh 29.75 in1007.5 mb 0.00 in0.0 mm 0.00 in0.0 mm 0.14 in3.6 mm
09:14 AM 40.6°F4.8°C 35.0°F1.7°C 80% 8.3 mph W13.4 kmh W 13.6 mph21.9 kmh 29.75 in1007.5 mb 0.00 in0.0 mm 0.00 in0.0 mm 0.14 in3.6 mm
08:59 AM 40.8°F4.9°C 34.5°F1.4°C 78% 9.2 mph WNW14.8 kmh WNW 16.8 mph27.0 kmh 29.74 in1007.1 mb 0.00 in0.0 mm 0.00 in0.0 mm 0.14 in3.6 mm
08:44 AM 41.0°F5.0°C 34.3°F1.3°C 77% 6.9 mph WNW11.1 kmh WNW 14.5 mph23.3 kmh 29.73 in1006.8 mb 0.00 in0.0 mm 0.00 in0.0 mm 0.14 in3.6 mm
08:29 AM 41.2°F5.1°C 34.5°F1.4°C 77% 9.2 mph NW14.8 kmh NW 19.7 mph31.7 kmh 29.73 in1006.8 mb 0.00 in0.0 mm 0.00 in0.0 mm 0.14 in3.6 mm
08:14 AM 41.0°F5.0°C 34.7°F1.5°C 78% 6.9 mph WNW11.1 kmh WNW 19.0 mph30.6 kmh 29.72 in1006.4 mb 0.00 in0.0 mm 0.00 in0.0 mm 0.14 in3.6 mm
07:59 AM 40.6°F4.8°C 35.0°F1.7°C 80% 12.1 mph NW19.5 kmh NW 19.7 mph31.7 kmh 29.71 in1006.1 mb 0.00 in0.0 mm 0.00 in0.0 mm 0.14 in3.6 mm
07:44 AM 40.3°F4.6°C 34.6°F1.4°C 80% 7.6 mph NW12.2 kmh NW 20.6 mph33.2 kmh 29.69 in1005.4 mb 0.00 in0.0 mm 0.00 in0.0 mm 0.14 in3.6 mm
07:29 AM 40.1°F4.5°C 34.7°F1.5°C 81% 9.8 mph WNW15.8 kmh WNW 19.0 mph30.6 kmh 29.68 in1005.1 mb 0.00 in0.0 mm 0.00 in0.0 mm 0.14 in3.6 mm
07:14 AM 39.7°F4.3°C 34.4°F1.3°C 81% 7.6 mph WNW12.2 kmh WNW 17.4 mph28.0 kmh 29.68 in1005.1 mb 0.00 in0.0 mm 0.00 in0.0 mm 0.14 in3.6 mm
06:59 AM 39.6°F4.2°C 34.2°F1.2°C 81% 9.2 mph NW14.8 kmh NW 19.0 mph30.6 kmh 29.67 in1004.7 mb 0.00 in0.0 mm 0.00 in0.0 mm 0.14 in3.6 mm
06:44 AM 39.4°F4.1°C 34.0°F1.1°C 81% 9.2 mph W14.8 kmh W 19.0 mph30.6 kmh 29.67 in1004.7 mb 0.00 in0.0 mm 0.00 in0.0 mm 0.14 in3.6 mm
06:29 AM 39.2°F4.0°C 34.2°F1.2°C 82% 12.1 mph WNW19.5 kmh WNW 16.8 mph27.0 kmh 29.65 in1004.1 mb 0.00 in0.0 mm 0.00 in0.0 mm 0.14 in3.6 mm
06:14 AM 39.2°F4.0°C 34.2°F1.2°C 82% 11.4 mph NW18.3 kmh NW 19.0 mph30.6 kmh 29.66 in1004.4 mb 0.00 in0.0 mm 0.00 in0.0 mm 0.14 in3.6 mm
05:59 AM 39.2°F4.0°C 34.5°F1.4°C 83% 13.6 mph WNW21.9 kmh WNW 19.7 mph31.7 kmh 29.65 in1004.1 mb 0.00 in0.0 mm 0.00 in0.0 mm 0.14 in3.6 mm
05:44 AM 39.0°F3.9°C 34.3°F1.3°C 83% 9.8 mph NW15.8 kmh NW 20.6 mph33.2 kmh 29.63 in1003.4 mb 0.00 in0.0 mm 0.00 in0.0 mm 0.14 in3.6 mm
05:29 AM 38.8°F3.8°C 34.4°F1.3°C 84% 13.0 mph WNW20.9 kmh WNW 20.6 mph33.2 kmh 29.63 in1003.4 mb 0.00 in0.0 mm 0.00 in0.0 mm 0.14 in3.6 mm
05:14 AM 38.7°F3.7°C 34.2°F1.2°C 84% 15.2 mph W24.5 kmh W 21.3 mph34.3 kmh 29.62 in1003.0 mb 0.00 in0.0 mm 0.00 in0.0 mm 0.14 in3.6 mm
04:59 AM 38.7°F3.7°C 34.2°F1.2°C 84% 9.8 mph W15.8 kmh W 20.6 mph33.2 kmh 29.61 in1002.7 mb 0.00 in0.0 mm 0.00 in0.0 mm 0.14 in3.6 mm
04:44 AM 38.7°F3.7°C 34.2°F1.2°C 84% 13.6 mph NW21.9 kmh NW 24.4 mph39.3 kmh 29.60 in1002.4 mb 0.00 in0.0 mm 0.00 in0.0 mm 0.14 in3.6 mm
04:29 AM 38.7°F3.7°C 34.5°F1.4°C 85% 15.2 mph NW24.5 kmh NW 22.8 mph36.7 kmh 29.58 in1001.7 mb 0.00 in0.0 mm 0.00 in0.0 mm 0.14 in3.6 mm
04:14 AM 38.7°F3.7°C 34.5°F1.4°C 85% 8.3 mph NW13.4 kmh NW 19.7 mph31.7 kmh 29.57 in1001.4 mb 0.00 in0.0 mm 0.00 in0.0 mm 0.14 in3.6 mm
03:59 AM 38.7°F3.7°C 34.5°F1.4°C 85% 11.4 mph NW18.3 kmh NW 22.1 mph35.6 kmh 29.56 in1001.0 mb 0.00 in0.0 mm 0.00 in0.0 mm 0.14 in3.6 mm
03:44 AM 38.7°F3.7°C 34.5°F1.4°C 85% 8.3 mph WNW13.4 kmh WNW 15.2 mph24.5 kmh 29.55 in1000.7 mb 0.00 in0.0 mm 0.00 in0.0 mm 0.14 in3.6 mm
03:29 AM 38.5°F3.6°C 34.4°F1.3°C 85% 11.4 mph WNW18.3 kmh WNW 23.5 mph37.8 kmh 29.54 in1000.3 mb 0.00 in0.0 mm 0.00 in0.0 mm 0.14 in3.6 mm
03:14 AM 38.3°F3.5°C 34.2°F1.2°C 85% 8.3 mph NW13.4 kmh NW 17.4 mph28.0 kmh 29.52 in999.7 mb 0.00 in0.0 mm 0.00 in0.0 mm 0.14 in3.6 mm
02:59 AM 38.1°F3.4°C 33.7°F0.9°C 84% 9.2 mph NW14.8 kmh NW 23.5 mph37.8 kmh 29.52 in999.7 mb 0.02 in0.5 mm 0.00 in0.0 mm 0.14 in3.6 mm
02:44 AM 37.9°F3.3°C 33.5°F0.8°C 84% 9.8 mph NW15.8 kmh NW 21.3 mph34.3 kmh 29.50 in999.0 mb 0.04 in1.0 mm 0.00 in0.0 mm 0.14 in3.6 mm
02:29 AM 37.8°F3.2°C 33.4°F0.8°C 84% 8.3 mph WNW13.4 kmh WNW 15.9 mph25.6 kmh 29.49 in998.6 mb 0.04 in1.0 mm 0.00 in0.0 mm 0.14 in3.6 mm
02:14 AM 37.8°F3.2°C 33.4°F0.8°C 84% 12.1 mph NW19.5 kmh NW 18.3 mph29.5 kmh 29.47 in998.0 mb 0.04 in1.0 mm 0.00 in0.0 mm 0.13 in3.3 mm
01:59 AM 37.6°F3.1°C 33.2°F0.7°C 84% 7.6 mph NW12.2 kmh NW 15.2 mph24.5 kmh 29.47 in998.0 mb 0.04 in1.0 mm 0.08 in2.0 mm 0.12 in3.0 mm
01:44 AM 37.0°F2.8°C 32.7°F0.4°C 84% 7.6 mph WNW12.2 kmh WNW 13.6 mph21.9 kmh 29.45 in997.3 mb 0.02 in0.5 mm 0.00 in0.0 mm 0.11 in2.8 mm
01:29 AM 36.9°F2.7°C 32.5°F0.3°C 84% 6.0 mph NW9.7 kmh NW 15.2 mph24.5 kmh 29.45 in997.3 mb 0.02 in0.5 mm 0.04 in1.0 mm 0.11 in2.8 mm
01:14 AM 37.0°F2.8°C 32.7°F0.4°C 84% 10.7 mph NW17.2 kmh NW 15.9 mph25.6 kmh 29.44 in997.0 mb 0.01 in0.3 mm 0.00 in0.0 mm 0.09 in2.3 mm
12:59 AM 37.0°F2.8°C 32.7°F0.4°C 84% 9.2 mph NW14.8 kmh NW 16.8 mph27.0 kmh 29.42 in996.3 mb 0.02 in0.5 mm 0.00 in0.0 mm 0.08 in2.0 mm
12:44 AM 37.0°F2.8°C 32.7°F0.4°C 84% 7.6 mph NW12.2 kmh NW 13.6 mph21.9 kmh 29.41 in995.9 mb 0.04 in1.0 mm 0.00 in0.0 mm 0.07 in1.8 mm
12:29 AM 37.0°F2.8°C 32.7°F0.4°C 84% 9.2 mph NW14.8 kmh NW 15.9 mph25.6 kmh 29.40 in995.6 mb 0.05 in1.3 mm 0.00 in0.0 mm 0.07 in1.8 mm
12:14 AM 36.9°F2.7°C 32.2°F0.1°C 83% 6.0 mph NW9.7 kmh NW 11.4 mph18.3 kmh 29.38 in994.9 mb 0.05 in1.3 mm 0.21 in5.3 mm 0.06 in1.5 mm